Anderson, South Dakota
Current Conditions -  °F | °C
As of 7:53 AM on Thursday 30 Oct 2014 (Local Time) from KHEI Reporting Station
Haze Haze  
Wind Chill: -3°   Ceiling: 300
Heat Index:   Visibility: 4mi
Dew Point:   Wind: 10mph
Humidity: 92%   Direction: 340°NNW
Pressure: 30.27"   Gusts: NA
Location:  45.2919°N, 102.298°W
Report Text: KHEI 301353Z AUTO 34009KT 4SM BR OVC003 01/00 A3027 RMK AO2 SLP274 T00110000
Loading
Personal Weather Stations






























Interactive Weather Map
Tropical Storm Tracking
New forecast layout! Learn more

10-Day Weather Forecast

Advertisements
Track Severe Weather on mobile